Kafr el-Dauwar, Egypt
Current Conditions -  °F | °C
As of 3:00 PM on Saturday 25 Oct 2014 (Local Time) from HEAX Reporting Station
Clear Clear  
Wind Chill: 32°   Ceiling: Unl
Heat Index: 32°   Visibility: 6mi
Dew Point:   Wind: 9mph
Humidity: 21%   Direction: 310°NW
Pressure: 29.91"   Gusts: NA
Location:  31.13°N, 30.12°E
Report Text: HEAX 251300Z 31008KT CAVOK 32/07 Q1013 NOSIG
Loading
Personal Weather Stations






























Interactive Weather Map
Tropical Storm Tracking
New forecast layout! Learn more

10-Day Weather Forecast

Advertisements
Track Severe Weather on mobile